Time;durP1;ratioP1;P1;durP2;ratioP2;P2;SDS_P1;SDS_P2;PMS_P1;PMS_P2;Temp;Humidity;BMP_temperature;BMP_pressure;BME280_temperature;BME280_humidity;BME280_pressure;Samples;Min_cycle;Max_cycle;Signal;HPM_P1;HPM_P2
2021/09/18 00:00:08;;;;;;;;;;;;;;;;;;5028387;28;19917;-84
2021/09/18 00:02:34;;;;;;;;;;;;;;;;;;5028247;28;20295;-83
2021/09/18 00:04:59;;;;;;;;;;;;;;;;;;5027622;28;19979;-83
2021/09/18 00:07:24;;;;;;;;;;;;;;;;;;5027888;28;20004;-84
2021/09/18 00:09:49;;;;;;;;;;;;;;;;;;5027961;28;19917;-83
2021/09/18 00:12:15;;;;;;;;;;;;;;;;;;5027867;28;19988;-83
2021/09/18 00:14:40;;;;;;;;;;;;;;;;;;5027551;28;19926;-83
2021/09/18 00:17:06;;;;;;;;;;;;;;;;;;5011540;28;19919;-83
2021/09/18 00:19:31;;;;;;;;;;;;;;;;;;5011590;28;20368;-83
2021/09/18 00:21:58;;;;;;;;;;;;;;;;;;5027854;28;20261;-83
2021/09/18 00:24:23;;;;;;;;;;;;;;;;;;5028001;28;19996;-83
2021/09/18 00:26:48;;;;;;;;;;;;;;;;;;5011355;28;20370;-83
2021/09/18 00:29:15;;;;;;;;;;;;;;;;;;5011514;28;19917;-83
2021/09/18 00:31:40;;;;;;;;;;;;;;;;;;5027961;28;19913;-83
2021/09/18 00:34:05;;;;;;;;;;;;;;;;;;5011415;28;19917;-84
2021/09/18 00:36:31;;;;;;;;;;;;;;;;;;5010557;28;19955;-83
2021/09/18 00:38:56;;;;;;;;;;;;;;;;;;5027445;28;19944;-83
2021/09/18 00:41:21;;;;;;;;;;;;;;;;;;5010961;28;19961;-83
2021/09/18 00:43:50;;;;;;;;;;;;;;;;;;5029212;28;19917;-83
2021/09/18 00:46:16;;;;;;;;;;;;;;;;;;5014260;28;19913;-83
2021/09/18 00:48:41;;;;;;;;;;;;;;;;;;5014581;28;19936;-83
2021/09/18 00:51:06;;;;;;;;;;;;;;;;;;5024690;28;19960;-83
2021/09/18 00:53:32;;;;;;;;;;;;;;;;;;5027326;28;20299;-83
2021/09/18 00:55:57;;;;;;;;;;;;;;;;;;5027641;28;19945;-83
2021/09/18 00:58:22;;;;;;;;;;;;;;;;;;5027659;28;19914;-83
2021/09/18 01:00:47;;;;;;;;;;;;;;;;;;5027875;28;19914;-83
2021/09/18 01:03:13;;;;;;;;;;;;;;;;;;5027878;28;19921;-83
2021/09/18 01:05:38;;;;;;;;;;;;;;;;;;5027054;28;19987;-83
2021/09/18 01:08:03;;;;;;;;;;;;;;;;;;5022650;28;19921;-83
2021/09/18 01:10:29;;;;;;;;;;;;;;;;;;5024063;28;19918;-83
2021/09/18 01:13:01;;;;;;;;;;;;;;;;;;5007394;28;19941;-84
2021/09/18 01:15:27;;;;;;;;;;;;;;;;;;5008120;28;19925;-83
2021/09/18 01:17:52;;;;;;;;;;;;;;;;;;5010946;28;19917;-83
2021/09/18 01:20:18;;;;;;;;;;;;;;;;;;5011451;28;19918;-83
2021/09/18 01:22:43;;;;;;;;;;;;;;;;;;4994834;28;19913;-83
2021/09/18 01:25:09;;;;;;;;;;;;;;;;;;5011072;28;20291;-83
2021/09/18 01:27:34;;;;;;;;;;;;;;;;;;5028266;28;20306;-83
2021/09/18 01:29:59;;;;;;;;;;;;;;;;;;4995153;28;20412;-83
2021/09/18 01:32:25;;;;;;;;;;;;;;;;;;5011597;28;19914;-83
2021/09/18 01:34:50;;;;;;;;;;;;;;;;;;5010867;28;19922;-83
2021/09/18 01:37:15;;;;;;;;;;;;;;;;;;5010921;28;20273;-83
2021/09/18 01:39:40;;;;;;;;;;;;;;;;;;5010921;28;20419;-83
2021/09/18 01:42:06;;;;;;;;;;;;;;;;;;5018519;28;19971;-83
2021/09/18 01:44:31;;;;;;;;;;;;;;;;;;5001566;28;19924;-83
2021/09/18 01:46:56;;;;;;;;;;;;;;;;;;5000823;28;19920;-83
2021/09/18 01:49:22;;;;;;;;;;;;;;;;;;5001079;28;19913;-83
2021/09/18 01:51:56;;;;;;;;;;;;;;;;;;5006164;28;19920;-83
2021/09/18 01:54:21;;;;;;;;;;;;;;;;;;5029319;28;19928;-83
2021/09/18 01:56:47;;;;;;;;;;;;;;;;;;5030763;28;19915;-83
2021/09/18 01:59:12;;;;;;;;;;;;;;;;;;5030420;28;19965;-83
2021/09/18 02:01:37;;;;;;;;;;;;;;;;;;5026318;28;20399;-83
2021/09/18 02:04:03;;;;;;;;;;;;;;;;;;4994103;28;19920;-83
2021/09/18 02:06:28;;;;;;;;;;;;;;;;;;4994152;28;20395;-83
2021/09/18 02:08:53;;;;;;;;;;;;;;;;;;5010186;28;20371;-83
2021/09/18 02:11:18;;;;;;;;;;;;;;;;;;4993948;28;19968;-83
2021/09/18 02:13:44;;;;;;;;;;;;;;;;;;5010700;28;19922;-83
2021/09/18 02:16:09;;;;;;;;;;;;;;;;;;5011044;28;19913;-83
2021/09/18 02:18:34;;;;;;;;;;;;;;;;;;5010387;28;19913;-83
2021/09/18 02:21:00;;;;;;;;;;;;;;;;;;5010309;28;20025;-83
2021/09/18 02:23:25;;;;;;;;;;;;;;;;;;5010377;28;19913;-83
2021/09/18 02:25:50;;;;;;;;;;;;;;;;;;4993769;28;19917;-83
2021/09/18 02:28:15;;;;;;;;;;;;;;;;;;4993530;28;20016;-83
2021/09/18 02:30:41;;;;;;;;;;;;;;;;;;5010351;28;19920;-83
2021/09/18 02:33:06;;;;;;;;;;;;;;;;;;4993533;28;19917;-83
2021/09/18 02:35:31;;;;;;;;;;;;;;;;;;4993672;28;19964;-83
2021/09/18 02:37:57;;;;;;;;;;;;;;;;;;5009917;28;20288;-83
2021/09/18 02:40:22;;;;;;;;;;;;;;;;;;4993744;28;20391;-83
2021/09/18 02:42:49;;;;;;;;;;;;;;;;;;5019587;28;19918;-83
2021/09/18 02:45:15;;;;;;;;;;;;;;;;;;5013153;28;19928;-83
2021/09/18 02:47:40;;;;;;;;;;;;;;;;;;5013013;28;19918;-83
2021/09/18 02:50:06;;;;;;;;;;;;;;;;;;4997249;28;19917;-83
2021/09/18 02:52:31;;;;;;;;;;;;;;;;;;4980049;28;20379;-83
2021/09/18 02:54:57;;;;;;;;;;;;;;;;;;5012979;28;19913;-83
2021/09/18 02:57:22;;;;;;;;;;;;;;;;;;5029127;28;19972;-83
2021/09/18 02:59:47;;;;;;;;;;;;;;;;;;5013302;28;19921;-83
2021/09/18 03:02:12;;;;;;;;;;;;;;;;;;5012595;28;19972;-83
2021/09/18 03:04:38;;;;;;;;;;;;;;;;;;5029071;28;19919;-83
2021/09/18 03:07:03;;;;;;;;;;;;;;;;;;5029425;28;20402;-83
2021/09/18 03:09:28;;;;;;;;;;;;;;;;;;5012605;28;19923;-83
2021/09/18 03:11:53;;;;;;;;;;;;;;;;;;5012647;28;19930;-83
2021/09/18 03:14:19;;;;;;;;;;;;;;;;;;5012648;28;19944;-83
2021/09/18 03:16:44;;;;;;;;;;;;;;;;;;5029227;28;19999;-83
2021/09/18 03:19:09;;;;;;;;;;;;;;;;;;5012554;28;19924;-83
2021/09/18 03:21:35;;;;;;;;;;;;;;;;;;5012020;28;19975;-83
2021/09/18 03:24:00;;;;;;;;;;;;;;;;;;5012449;28;19914;-83
2021/09/18 03:26:25;;;;;;;;;;;;;;;;;;5012622;28;19913;-83
2021/09/18 03:28:51;;;;;;;;;;;;;;;;;;5012595;28;19918;-83
2021/09/18 03:31:17;;;;;;;;;;;;;;;;;;5028836;28;20279;-83
2021/09/18 03:33:42;;;;;;;;;;;;;;;;;;5012944;28;20016;-83
2021/09/18 03:36:08;;;;;;;;;;;;;;;;;;5011884;28;19999;-83
2021/09/18 03:38:33;;;;;;;;;;;;;;;;;;5027806;28;19913;-83
2021/09/18 03:40:58;;;;;;;;;;;;;;;;;;5028261;28;19917;-83
2021/09/18 03:43:23;;;;;;;;;;;;;;;;;;5012022;28;20373;-83
2021/09/18 03:45:51;;;;;;;;;;;;;;;;;;5012056;28;19921;-83
2021/09/18 03:48:16;;;;;;;;;;;;;;;;;;5028635;28;20291;-83
2021/09/18 03:50:41;;;;;;;;;;;;;;;;;;5028020;28;19920;-83
2021/09/18 03:53:06;;;;;;;;;;;;;;;;;;4979241;28;20016;-83
2021/09/18 03:55:32;;;;;;;;;;;;;;;;;;5011929;28;19910;-83
2021/09/18 03:57:57;;;;;;;;;;;;;;;;;;5028257;28;19913;-83
2021/09/18 04:00:22;;;;;;;;;;;;;;;;;;5027762;28;19917;-83
2021/09/18 04:02:48;;;;;;;;;;;;;;;;;;5028326;28;19920;-82
2021/09/18 04:05:13;;;;;;;;;;;;;;;;;;5023415;28;19917;-83
2021/09/18 04:07:38;;;;;;;;;;;;;;;;;;4989824;28;19921;-83
2021/09/18 04:10:04;;;;;;;;;;;;;;;;;;4990457;28;19922;-83
2021/09/18 04:12:29;;;;;;;;;;;;;;;;;;4991070;28;19943;-83
2021/09/18 04:14:54;;;;;;;;;;;;;;;;;;4991539;28;19921;-83
2021/09/18 04:17:19;;;;;;;;;;;;;;;;;;5008298;28;20366;-83
2021/09/18 04:19:45;;;;;;;;;;;;;;;;;;5008578;28;20013;-83
2021/09/18 04:22:10;;;;;;;;;;;;;;;;;;5007834;28;19917;-83
2021/09/18 04:24:36;;;;;;;;;;;;;;;;;;5008312;28;19917;-82
2021/09/18 04:27:01;;;;;;;;;;;;;;;;;;5024695;28;19924;-83
2021/09/18 04:29:26;;;;;;;;;;;;;;;;;;5008111;28;19914;-83
2021/09/18 04:31:52;;;;;;;;;;;;;;;;;;4991040;28;19913;-83
2021/09/18 04:34:17;;;;;;;;;;;;;;;;;;4991859;28;19980;-83
2021/09/18 04:36:42;;;;;;;;;;;;;;;;;;4991492;28;19921;-83
2021/09/18 04:39:07;;;;;;;;;;;;;;;;;;5007813;28;19921;-83
2021/09/18 04:41:33;;;;;;;;;;;;;;;;;;4991540;28;20335;-83
2021/09/18 04:43:58;;;;;;;;;;;;;;;;;;5010997;28;19918;-83
2021/09/18 04:46:25;;;;;;;;;;;;;;;;;;5011217;28;20461;-82
2021/09/18 04:48:50;;;;;;;;;;;;;;;;;;4995113;28;20315;-83
2021/09/18 04:51:15;;;;;;;;;;;;;;;;;;5010675;28;19913;-83
2021/09/18 04:53:41;;;;;;;;;;;;;;;;;;5027711;28;20015;-83
2021/09/18 04:56:06;;;;;;;;;;;;;;;;;;5028010;28;19914;-83
2021/09/18 04:58:31;;;;;;;;;;;;;;;;;;5027330;28;20376;-83
2021/09/18 05:00:57;;;;;;;;;;;;;;;;;;5027567;28;19920;-83
2021/09/18 05:03:22;;;;;;;;;;;;;;;;;;5027458;28;19995;-83
2021/09/18 05:05:48;;;;;;;;;;;;;;;;;;5027189;28;19919;-83
2021/09/18 05:08:13;;;;;;;;;;;;;;;;;;5010871;28;19919;-83
2021/09/18 05:10:38;;;;;;;;;;;;;;;;;;5044435;28;19913;-83
2021/09/18 05:13:04;;;;;;;;;;;;;;;;;;5027131;28;19921;-82
2021/09/18 05:15:29;;;;;;;;;;;;;;;;;;5027745;28;19921;-82
2021/09/18 05:17:54;;;;;;;;;;;;;;;;;;5027381;28;19918;-83
2021/09/18 05:20:20;;;;;;;;;;;;;;;;;;5027216;28;20012;-83
2021/09/18 05:22:45;;;;;;;;;;;;;;;;;;5027160;28;19913;-83
2021/09/18 05:25:10;;;;;;;;;;;;;;;;;;5027440;28;20402;-83
2021/09/18 05:27:36;;;;;;;;;;;;;;;;;;5027195;28;19963;-83
2021/09/18 05:30:01;;;;;;;;;;;;;;;;;;5027427;28;20330;-83
2021/09/18 05:32:26;;;;;;;;;;;;;;;;;;5027165;28;19913;-83
2021/09/18 05:34:52;;;;;;;;;;;;;;;;;;5026936;28;19920;-82
2021/09/18 05:37:17;;;;;;;;;;;;;;;;;;5026808;28;20004;-83
2021/09/18 05:39:42;;;;;;;;;;;;;;;;;;5027479;28;20414;-83
2021/09/18 05:42:08;;;;;;;;;;;;;;;;;;5026751;28;19924;-83
2021/09/18 05:44:34;;;;;;;;;;;;;;;;;;5010780;28;20363;-83
2021/09/18 05:46:59;;;;;;;;;;;;;;;;;;5010358;28;19921;-83
2021/09/18 05:49:24;;;;;;;;;;;;;;;;;;5010589;28;19957;-83
2021/09/18 05:51:49;;;;;;;;;;;;;;;;;;4994171;28;19914;-83
2021/09/18 05:54:15;;;;;;;;;;;;;;;;;;5026851;28;20332;-83
2021/09/18 05:56:40;;;;;;;;;;;;;;;;;;5026840;28;19913;-83
2021/09/18 05:59:05;;;;;;;;;;;;;;;;;;5043330;28;20295;-83
2021/09/18 06:01:30;;;;;;;;;;;;;;;;;;5026844;28;19921;-83
2021/09/18 06:03:56;;;;;;;;;;;;;;;;;;5047426;28;19921;-83
2021/09/18 06:06:21;;;;;;;;;;;;;;;;;;5046650;28;19918;-83
2021/09/18 06:08:46;;;;;;;;;;;;;;;;;;5030394;28;19913;-83
2021/09/18 06:11:11;;;;;;;;;;;;;;;;;;5030065;28;20334;-83
2021/09/18 06:13:37;;;;;;;;;;;;;;;;;;5030443;28;19968;-83
2021/09/18 06:16:02;;;;;;;;;;;;;;;;;;5030377;28;19921;-83
2021/09/18 06:18:27;;;;;;;;;;;;;;;;;;5030009;28;19948;-83
2021/09/18 06:20:53;;;;;;;;;;;;;;;;;;5030114;28;19917;-84
2021/09/18 06:23:18;;;;;;;;;;;;;;;;;;5030178;28;19913;-83
2021/09/18 06:25:43;;;;;;;;;;;;;;;;;;5029854;28;19917;-83
2021/09/18 06:28:09;;;;;;;;;;;;;;;;;;5030236;28;19917;-83
2021/09/18 06:30:34;;;;;;;;;;;;;;;;;;5029938;28;20387;-83
2021/09/18 06:32:59;;;;;;;;;;;;;;;;;;5029767;28;19921;-83
2021/09/18 06:35:25;;;;;;;;;;;;;;;;;;5029670;28;19914;-82
2021/09/18 06:37:50;;;;;;;;;;;;;;;;;;5029741;28;19913;-83
2021/09/18 06:40:16;;;;;;;;;;;;;;;;;;5029711;28;20276;-83
2021/09/18 06:42:41;;;;;;;;;;;;;;;;;;5026145;28;19993;-83
2021/09/18 06:45:07;;;;;;;;;;;;;;;;;;4993471;28;20343;-83
2021/09/18 06:47:32;;;;;;;;;;;;;;;;;;5010122;28;19921;-83
2021/09/18 06:49:57;;;;;;;;;;;;;;;;;;4993609;28;20353;-83
2021/09/18 06:52:23;;;;;;;;;;;;;;;;;;5009648;28;19936;-83
2021/09/18 06:54:48;;;;;;;;;;;;;;;;;;5029037;28;19914;-83
2021/09/18 06:57:13;;;;;;;;;;;;;;;;;;5029886;28;20008;-83
2021/09/18 06:59:39;;;;;;;;;;;;;;;;;;5029487;28;20272;-83
2021/09/18 07:02:04;;;;;;;;;;;;;;;;;;5029184;28;19917;-83
2021/09/18 07:04:29;;;;;;;;;;;;;;;;;;5029173;28;19962;-83
2021/09/18 07:06:55;;;;;;;;;;;;;;;;;;5028991;28;19914;-83
2021/09/18 07:09:20;;;;;;;;;;;;;;;;;;5029223;28;20004;-83
2021/09/18 07:11:46;;;;;;;;;;;;;;;;;;5012673;28;19965;-83
2021/09/18 07:14:11;;;;;;;;;;;;;;;;;;5028142;28;19921;-83
2021/09/18 07:16:36;;;;;;;;;;;;;;;;;;5029403;28;20425;-83
2021/09/18 07:19:01;;;;;;;;;;;;;;;;;;5028940;28;19921;-83
2021/09/18 07:21:27;;;;;;;;;;;;;;;;;;5028678;28;19956;-83
2021/09/18 07:23:52;;;;;;;;;;;;;;;;;;5028972;28;20323;-83
2021/09/18 07:26:17;;;;;;;;;;;;;;;;;;5029180;28;19960;-83
2021/09/18 07:28:42;;;;;;;;;;;;;;;;;;5028798;28;20330;-83
2021/09/18 07:31:08;;;;;;;;;;;;;;;;;;5028516;28;19913;-83
2021/09/18 07:33:33;;;;;;;;;;;;;;;;;;5028777;28;19972;-83
2021/09/18 07:35:58;;;;;;;;;;;;;;;;;;5028546;28;20295;-83
2021/09/18 07:38:23;;;;;;;;;;;;;;;;;;5028458;28;19952;-83
2021/09/18 07:40:53;;;;;;;;;;;;;;;;;;5028583;28;19918;-83
2021/09/18 07:43:19;;;;;;;;;;;;;;;;;;5029127;28;19917;-83
2021/09/18 07:45:44;;;;;;;;;;;;;;;;;;4996024;28;20276;-83
2021/09/18 07:48:09;;;;;;;;;;;;;;;;;;5028693;28;19917;-83
2021/09/18 07:50:34;;;;;;;;;;;;;;;;;;4995704;28;19909;-83
2021/09/18 07:53:00;;;;;;;;;;;;;;;;;;5027797;28;19914;-83
2021/09/18 07:55:26;;;;;;;;;;;;;;;;;;5045610;28;20479;-83
2021/09/18 07:57:52;;;;;;;;;;;;;;;;;;5028411;28;19924;-83
2021/09/18 08:00:17;;;;;;;;;;;;;;;;;;5028490;28;19948;-83
2021/09/18 08:02:43;;;;;;;;;;;;;;;;;;5028374;28;19995;-83
2021/09/18 08:05:08;;;;;;;;;;;;;;;;;;5028188;28;20313;-83
2021/09/18 08:07:34;;;;;;;;;;;;;;;;;;5028199;28;20331;-83
2021/09/18 08:10:00;;;;;;;;;;;;;;;;;;5028349;28;19917;-83
2021/09/18 08:12:26;;;;;;;;;;;;;;;;;;5027954;28;19956;-82
2021/09/18 08:14:52;;;;;;;;;;;;;;;;;;5028456;28;19976;-83
2021/09/18 08:17:17;;;;;;;;;;;;;;;;;;5028042;28;19913;-83
2021/09/18 08:19:42;;;;;;;;;;;;;;;;;;5027812;28;19917;-84
2021/09/18 08:22:07;;;;;;;;;;;;;;;;;;5027982;28;19968;-82
2021/09/18 08:24:33;;;;;;;;;;;;;;;;;;5027975;28;19913;-83
2021/09/18 08:26:58;;;;;;;;;;;;;;;;;;5027666;28;20306;-83
2021/09/18 08:29:23;;;;;;;;;;;;;;;;;;5011867;28;19920;-83
2021/09/18 08:31:48;;;;;;;;;;;;;;;;;;5011395;28;19932;-83
2021/09/18 08:34:14;;;;;;;;;;;;;;;;;;5027728;28;19917;-83
2021/09/18 08:36:39;;;;;;;;;;;;;;;;;;5027085;28;19917;-83
2021/09/18 08:39:04;;;;;;;;;;;;;;;;;;5027360;28;19957;-83
2021/09/18 08:41:30;;;;;;;;;;;;;;;;;;5027820;28;20380;-82
2021/09/18 08:43:55;;;;;;;;;;;;;;;;;;5027876;28;20012;-83
2021/09/18 08:46:21;;;;;;;;;;;;;;;;;;5011083;28;19917;-82
2021/09/18 08:48:46;;;;;;;;;;;;;;;;;;4994201;28;19967;-83
2021/09/18 08:51:12;;;;;;;;;;;;;;;;;;5010973;28;19970;-83
2021/09/18 08:53:37;;;;;;;;;;;;;;;;;;5011091;28;19968;-83
2021/09/18 08:56:03;;;;;;;;;;;;;;;;;;5044030;28;19913;-83
2021/09/18 08:58:28;;;;;;;;;;;;;;;;;;5011183;28;19947;-83
2021/09/18 09:00:54;;;;;;;;;;;;;;;;;;5027326;28;19920;-83
2021/09/18 09:03:35;;;;;;;;;;;;;;;;;;5027324;28;19920;-83
2021/09/18 09:06:05;;;;;;;;;;;;;;;;;;5026994;28;19921;-82
2021/09/18 09:08:30;;;;;;;;;;;;;;;;;;5027566;28;20380;-83
2021/09/18 09:10:55;;;;;;;;;;;;;;;;;;5026990;28;19913;-84
2021/09/18 09:13:21;;;;;;;;;;;;;;;;;;5027319;28;19929;-82
2021/09/18 09:15:47;;;;;;;;;;;;;;;;;;5027227;28;19967;-82
2021/09/18 09:18:23;;;;;;;;;;;;;;;;;;5027278;28;19948;-83
2021/09/18 09:20:49;;;;;;;;;;;;;;;;;;5027240;28;19924;-83
2021/09/18 09:23:15;;;;;;;;;;;;;;;;;;5027273;28;19917;-83
2021/09/18 09:25:41;;;;;;;;;;;;;;;;;;5027428;28;19968;-83
2021/09/18 09:28:21;;;;;;;;;;;;;;;;;;5027126;28;19917;-82
2021/09/18 09:30:46;;;;;;;;;;;;;;;;;;5010887;28;19936;-83
2021/09/18 09:33:12;;;;;;;;;;;;;;;;;;5026986;28;19917;-83
2021/09/18 09:35:37;;;;;;;;;;;;;;;;;;5026780;28;20283;-83
2021/09/18 09:38:03;;;;;;;;;;;;;;;;;;5029111;28;19917;-83
2021/09/18 09:40:34;;;;;;;;;;;;;;;;;;5030853;28;20287;-83
2021/09/18 09:42:59;;;;;;;;;;;;;;;;;;5015885;28;19921;-82
2021/09/18 09:45:25;;;;;;;;;;;;;;;;;;4998233;28;19924;-83
2021/09/18 09:48:05;;;;;;;;;;;;;;;;;;5014061;28;19914;-83
2021/09/18 09:50:31;;;;;;;;;;;;;;;;;;5046986;28;19960;-83
2021/09/18 09:52:57;;;;;;;;;;;;;;;;;;5014376;28;19917;-82
2021/09/18 09:55:22;;;;;;;;;;;;;;;;;;5030378;28;19963;-83
2021/09/18 09:57:57;;;;;;;;;;;;;;;;;;5030449;28;19909;-83
2021/09/18 10:00:22;;;;;;;;;;;;;;;;;;5014069;28;19917;-82
2021/09/18 10:02:47;;;;;;;;;;;;;;;;;;5030132;28;20000;-83
2021/09/18 10:05:13;;;;;;;;;;;;;;;;;;5029779;28;19917;-83
2021/09/18 10:07:39;;;;;;;;;;;;;;;;;;5030213;28;19983;-83
2021/09/18 10:10:05;;;;;;;;;;;;;;;;;;5030521;28;20387;-83
2021/09/18 10:12:30;;;;;;;;;;;;;;;;;;5013772;28;19929;-82
2021/09/18 10:14:55;;;;;;;;;;;;;;;;;;5030349;28;20012;-83
2021/09/18 10:17:20;;;;;;;;;;;;;;;;;;5029842;28;19914;-83
2021/09/18 10:24:59;;;;;;;;;;;;;;;;;;5014020;28;19945;-83
2021/09/18 10:27:25;;;;;;;;;;;;;;;;;;5030744;28;19964;-83
2021/09/18 10:29:50;;;;;;;;;;;;;;;;;;5030006;28;19924;-83
2021/09/18 10:32:16;;;;;;;;;;;;;;;;;;5029779;28;20419;-83
2021/09/18 10:34:41;;;;;;;;;;;;;;;;;;5029807;28;20012;-82
2021/09/18 10:37:07;;;;;;;;;;;;;;;;;;5029601;28;19936;-83
2021/09/18 10:39:32;;;;;;;;;;;;;;;;;;5029893;28;20299;-83
2021/09/18 10:41:58;;;;;;;;;;;;;;;;;;5029560;28;19918;-83
2021/09/18 10:44:24;;;;;;;;;;;;;;;;;;5029949;28;19917;-83
2021/09/18 10:46:50;;;;;;;;;;;;;;;;;;5012933;28;19929;-83
2021/09/18 10:49:34;;;;;;;;;;;;;;;;;;5029474;28;19917;-82
2021/09/18 10:52:19;;;;;;;;;;;;;;;;;;5045991;28;20309;-83
2021/09/18 10:55:05;;;;;;;;;;;;;;;;;;5009704;28;19918;-82
2021/09/18 10:57:45;;;;;;;;;;;;;;;;;;5009818;28;19917;-82
2021/09/18 11:00:14;;;;;;;;;;;;;;;;;;5009529;28;19918;-83
2021/09/18 11:02:40;;;;;;;;;;;;;;;;;;5009913;28;19917;-83
2021/09/18 11:05:20;;;;;;;;;;;;;;;;;;5009170;28;19925;-83
2021/09/18 11:07:46;;;;;;;;;;;;;;;;;;5009980;28;19920;-82
2021/09/18 11:10:15;;;;;;;;;;;;;;;;;;5009367;28;20396;-82
2021/09/18 11:12:41;;;;;;;;;;;;;;;;;;4993187;28;19992;-83
2021/09/18 11:15:07;;;;;;;;;;;;;;;;;;5009273;28;20080;-83
2021/09/18 11:17:33;;;;;;;;;;;;;;;;;;4992958;28;20395;-83
2021/09/18 11:20:14;;;;;;;;;;;;;;;;;;5009098;28;19948;-83
2021/09/18 11:22:39;;;;;;;;;;;;;;;;;;5009281;28;19914;-83
2021/09/18 11:25:23;;;;;;;;;;;;;;;;;;5009014;28;19944;-83
2021/09/18 11:28:24;;;;;;;;;;;;;;;;;;5009174;28;19914;-82
2021/09/18 11:30:54;;;;;;;;;;;;;;;;;;4972020;28;19996;-82
2021/09/18 11:33:22;;;;;;;;;;;;;;;;;;4985289;28;19953;-83
2021/09/18 11:35:57;;;;;;;;;;;;;;;;;;5008818;28;19914;-83
2021/09/18 11:38:24;;;;;;;;;;;;;;;;;;5008983;28;19936;-83
2021/09/18 11:40:49;;;;;;;;;;;;;;;;;;5008757;28;19914;-83
2021/09/18 11:43:14;;;;;;;;;;;;;;;;;;5005597;28;19927;-83
2021/09/18 11:45:40;;;;;;;;;;;;;;;;;;5029176;28;19963;-83
2021/09/18 11:48:07;;;;;;;;;;;;;;;;;;5011822;28;19917;-83
2021/09/18 11:50:34;;;;;;;;;;;;;;;;;;5011964;28;19909;-83
2021/09/18 11:53:00;;;;;;;;;;;;;;;;;;5028520;28;19963;-83
2021/09/18 11:55:27;;;;;;;;;;;;;;;;;;5028898;28;20352;-83
2021/09/18 11:58:11;;;;;;;;;;;;;;;;;;5027834;28;19952;-83
2021/09/18 12:00:37;;;;;;;;;;;;;;;;;;5027736;28;20272;-83
2021/09/18 12:03:02;;;;;;;;;;;;;;;;;;5028623;28;19920;-83
2021/09/18 12:05:28;;;;;;;;;;;;;;;;;;5027766;28;19918;-83
2021/09/18 12:07:53;;;;;;;;;;;;;;;;;;5028115;28;20371;-83
2021/09/18 12:10:19;;;;;;;;;;;;;;;;;;5028149;28;19991;-83
2021/09/18 12:12:45;;;;;;;;;;;;;;;;;;5028014;28;19961;-82
2021/09/18 12:15:11;;;;;;;;;;;;;;;;;;5027859;28;19947;-83
2021/09/18 12:17:40;;;;;;;;;;;;;;;;;;5028051;28;19921;-83
2021/09/18 12:20:09;;;;;;;;;;;;;;;;;;5027911;28;19921;-83
2021/09/18 12:22:34;;;;;;;;;;;;;;;;;;5027914;28;19913;-83
2021/09/18 12:24:59;;;;;;;;;;;;;;;;;;5028072;28;19917;-83
2021/09/18 12:27:29;;;;;;;;;;;;;;;;;;5027736;28;19917;-83
2021/09/18 12:29:55;;;;;;;;;;;;;;;;;;5027739;28;19920;-83
2021/09/18 12:32:21;;;;;;;;;;;;;;;;;;5028056;28;19917;-83
2021/09/18 12:34:46;;;;;;;;;;;;;;;;;;5027529;28;19920;-83
2021/09/18 12:37:11;;;;;;;;;;;;;;;;;;5027694;28;20298;-83
2021/09/18 12:39:36;;;;;;;;;;;;;;;;;;5027855;28;19913;-82
2021/09/18 12:42:03;;;;;;;;;;;;;;;;;;5027347;28;19918;-83
2021/09/18 12:44:35;;;;;;;;;;;;;;;;;;5011488;28;19949;-82
2021/09/18 12:47:00;;;;;;;;;;;;;;;;;;5011192;28;19971;-82
2021/09/18 12:49:27;;;;;;;;;;;;;;;;;;4995089;28;20008;-82
2021/09/18 12:52:02;;;;;;;;;;;;;;;;;;4994637;28;19949;-82
2021/09/18 12:54:28;;;;;;;;;;;;;;;;;;5024433;28;19914;-82
2021/09/18 12:57:01;;;;;;;;;;;;;;;;;;5007317;28;19914;-83
2021/09/18 12:59:26;;;;;;;;;;;;;;;;;;5008020;28;20045;-83
2021/09/18 13:01:53;;;;;;;;;;;;;;;;;;5007830;28;20016;-83
2021/09/18 13:04:19;;;;;;;;;;;;;;;;;;5007584;28;20004;-83
2021/09/18 13:06:58;;;;;;;;;;;;;;;;;;5007300;28;19917;-83
2021/09/18 13:09:24;;;;;;;;;;;;;;;;;;5007582;28;19913;-82
2021/09/18 13:11:50;;;;;;;;;;;;;;;;;;5009598;28;20308;-83
2021/09/18 13:14:17;;;;;;;;;;;;;;;;;;5011473;28;19917;-83
2021/09/18 13:16:58;;;;;;;;;;;;;;;;;;5011796;28;19918;-82
2021/09/18 13:19:23;;;;;;;;;;;;;;;;;;5011572;28;20003;-83
2021/09/18 13:21:49;;;;;;;;;;;;;;;;;;5011549;28;20328;-83
2021/09/18 13:24:14;;;;;;;;;;;;;;;;;;5011139;28;19938;-83
2021/09/18 13:26:40;;;;;;;;;;;;;;;;;;5011564;28;19917;-83
2021/09/18 13:29:05;;;;;;;;;;;;;;;;;;5011860;28;19922;-83
2021/09/18 13:31:30;;;;;;;;;;;;;;;;;;5011497;28;20296;-83
2021/09/18 13:33:56;;;;;;;;;;;;;;;;;;5011544;28;20399;-83
2021/09/18 13:36:21;;;;;;;;;;;;;;;;;;5011380;28;19917;-83
2021/09/18 13:38:46;;;;;;;;;;;;;;;;;;5010800;28;19913;-83
2021/09/18 13:41:12;;;;;;;;;;;;;;;;;;5011259;28;19922;-83
2021/09/18 13:43:37;;;;;;;;;;;;;;;;;;5014474;28;20383;-82
2021/09/18 13:46:02;;;;;;;;;;;;;;;;;;5014291;28;20360;-82
2021/09/18 13:48:28;;;;;;;;;;;;;;;;;;5014219;28;20248;-82
2021/09/18 13:50:53;;;;;;;;;;;;;;;;;;5014210;28;20008;-82
2021/09/18 13:53:18;;;;;;;;;;;;;;;;;;5030783;28;20427;-82
2021/09/18 13:55:43;;;;;;;;;;;;;;;;;;5030957;28;19921;-83
2021/09/18 13:58:08;;;;;;;;;;;;;;;;;;5031035;28;19921;-83
2021/09/18 14:00:34;;;;;;;;;;;;;;;;;;5047464;28;20426;-82
2021/09/18 14:03:00;;;;;;;;;;;;;;;;;;5030314;28;19924;-82
2021/09/18 14:05:25;;;;;;;;;;;;;;;;;;5030127;28;20295;-83
2021/09/18 14:07:51;;;;;;;;;;;;;;;;;;5029952;28;19921;-83
2021/09/18 14:10:16;;;;;;;;;;;;;;;;;;5030683;28;19921;-82
2021/09/18 14:12:41;;;;;;;;;;;;;;;;;;5030199;28;20015;-82
2021/09/18 14:15:07;;;;;;;;;;;;;;;;;;5030515;28;19925;-82
2021/09/18 14:17:33;;;;;;;;;;;;;;;;;;5030065;28;19917;-82
2021/09/18 14:19:58;;;;;;;;;;;;;;;;;;5030040;28;19925;-82
2021/09/18 14:22:23;;;;;;;;;;;;;;;;;;5029336;28;19914;-82
2021/09/18 14:24:49;;;;;;;;;;;;;;;;;;5030129;28;19914;-81
2021/09/18 14:27:14;;;;;;;;;;;;;;;;;;5029908;28;19917;-82
2021/09/18 14:29:39;;;;;;;;;;;;;;;;;;5030011;28;19917;-82
2021/09/18 14:32:05;;;;;;;;;;;;;;;;;;5030114;28;19917;-82
2021/09/18 14:34:31;;;;;;;;;;;;;;;;;;5029734;28;20016;-83
2021/09/18 14:36:56;;;;;;;;;;;;;;;;;;5029206;28;20356;-82
2021/09/18 14:39:21;;;;;;;;;;;;;;;;;;5046708;28;20004;-83
2021/09/18 14:41:47;;;;;;;;;;;;;;;;;;5046528;28;20430;-82
2021/09/18 14:44:12;;;;;;;;;;;;;;;;;;4997014;28;19917;-83
2021/09/18 14:46:37;;;;;;;;;;;;;;;;;;5013509;28;19913;-83
2021/09/18 14:49:03;;;;;;;;;;;;;;;;;;5029598;28;19957;-83
2021/09/18 14:51:28;;;;;;;;;;;;;;;;;;5028966;28;19944;-83
2021/09/18 14:53:53;;;;;;;;;;;;;;;;;;5029675;28;19913;-83
2021/09/18 14:56:18;;;;;;;;;;;;;;;;;;4980599;28;19920;-82
2021/09/18 14:58:44;;;;;;;;;;;;;;;;;;4996723;28;19913;-84
2021/09/18 15:01:09;;;;;;;;;;;;;;;;;;4980433;28;20367;-83
2021/09/18 15:03:34;;;;;;;;;;;;;;;;;;4996384;28;19964;-83
2021/09/18 15:06:00;;;;;;;;;;;;;;;;;;4979878;28;19920;-83
2021/09/18 15:08:25;;;;;;;;;;;;;;;;;;5012603;28;19917;-82
2021/09/18 15:10:50;;;;;;;;;;;;;;;;;;4980232;28;19917;-82
2021/09/18 15:13:15;;;;;;;;;;;;;;;;;;4980385;28;19924;-83
2021/09/18 15:15:41;;;;;;;;;;;;;;;;;;4980073;28;20738;-83
2021/09/18 15:18:06;;;;;;;;;;;;;;;;;;4979983;28;19913;-82
2021/09/18 15:20:32;;;;;;;;;;;;;;;;;;4995979;28;20367;-82
2021/09/18 15:23:02;;;;;;;;;;;;;;;;;;4996323;28;19961;-82
2021/09/18 15:25:29;;;;;;;;;;;;;;;;;;5013203;28;19921;-82
2021/09/18 15:27:55;;;;;;;;;;;;;;;;;;4996736;28;19918;-83
2021/09/18 15:30:20;;;;;;;;;;;;;;;;;;4996019;28;20284;-82
2021/09/18 15:32:45;;;;;;;;;;;;;;;;;;4979741;28;19913;-82
2021/09/18 15:35:12;;;;;;;;;;;;;;;;;;4994125;28;19940;-83
2021/09/18 15:37:37;;;;;;;;;;;;;;;;;;4996150;28;19913;-82
2021/09/18 15:40:02;;;;;;;;;;;;;;;;;;4995938;28;19967;-83
2021/09/18 15:42:28;;;;;;;;;;;;;;;;;;5012139;28;19976;-83
2021/09/18 15:44:53;;;;;;;;;;;;;;;;;;5012211;28;19917;-83
2021/09/18 15:47:18;;;;;;;;;;;;;;;;;;5012187;28;19914;-83
2021/09/18 15:49:43;;;;;;;;;;;;;;;;;;5011733;28;19914;-83
2021/09/18 15:52:10;;;;;;;;;;;;;;;;;;5012180;28;19964;-82
2021/09/18 15:54:35;;;;;;;;;;;;;;;;;;5028961;28;19917;-82
2021/09/18 15:57:08;;;;;;;;;;;;;;;;;;5110002;27;20362;-83
2021/09/18 15:59:33;;;;;;;;;;;;;;;;;;5074955;28;19941;-83
2021/09/18 16:01:59;;;;;;;;;;;;;;;;;;5091893;28;19938;-83
2021/09/18 16:04:24;;;;;;;;;;;;;;;;;;5091453;28;19959;-83
2021/09/18 16:06:50;;;;;;;;;;;;;;;;;;5108501;28;19974;-83
2021/09/18 16:09:15;;;;;;;;;;;;;;;;;;5091772;28;20410;-83
2021/09/18 16:11:41;;;;;;;;;;;;;;;;;;5091848;28;19957;-83
2021/09/18 16:14:06;;;;;;;;;;;;;;;;;;5091947;28;19963;-83
2021/09/18 16:16:31;;;;;;;;;;;;;;;;;;5074446;28;19951;-83
2021/09/18 16:18:57;;;;;;;;;;;;;;;;;;5091204;28;19912;-84
2021/09/18 16:21:22;;;;;;;;;;;;;;;;;;5109087;28;19947;-83
2021/09/18 16:23:47;;;;;;;;;;;;;;;;;;5091212;28;20385;-83
2021/09/18 16:26:12;;;;;;;;;;;;;;;;;;5091739;28;20010;-83
2021/09/18 16:28:38;;;;;;;;;;;;;;;;;;5091484;28;19912;-83
2021/09/18 16:31:03;;;;;;;;;;;;;;;;;;5091485;28;20437;-83
2021/09/18 16:33:29;;;;;;;;;;;;;;;;;;5090815;28;19916;-83
2021/09/18 16:35:54;;;;;;;;;;;;;;;;;;5074103;28;19912;-83
2021/09/18 16:38:19;;;;;;;;;;;;;;;;;;5074249;28;20362;-82
2021/09/18 16:40:45;;;;;;;;;;;;;;;;;;5074337;28;19916;-83
2021/09/18 16:43:10;;;;;;;;;;;;;;;;;;5087624;28;20370;-83